Flight Track Log - Related Links

Times and Time Zones

All times are in EDT time to prevent confusion due to time zone crossing. See the JBU56 flight status page for this flight to view local times or setup timezone preferences in your user account.

Time Position Orientation Groundspeed Altitude Reporting Facility
EDT Latitude Longitude Course Direction KTS MPH feet Rate Location/Type
Sun 09:06:31 AM 38.9500 -77.5167 90° East 174 200 1,700  Level Potomac TRACON
Sun 09:07:25 AM 39.0000 -77.5333 345° North 226 260 3,100 2,111 Climbing Potomac TRACON
Sun 09:08:19 AM 39.0667 -77.5000 21° North 273 314 5,500 3,000 Climbing Potomac TRACON
Sun 09:09:19 AM 39.1333 -77.4500 30° Northeast 294 338 8,800 2,212 Climbing Potomac TRACON
Sun 09:10:00 AM 39.1500 -76.1885 90° East  Level FlightAware Approximate
Sun 09:11:00 AM 39.1500 -76.1003 90° East  Level FlightAware Approximate
Sun 09:11:18 AM 39.1578 -77.2833 79° East 247 284 12,100  Level Washington Center
Sun 09:12:19 AM 39.1300 -77.1811 109° East 273 314 14,600 2,410 Climbing Washington Center
Sun 09:13:20 AM 39.0917 -77.0786 116° Southeast 284 327 17,000 2,066 Climbing Washington Center
Sun 09:14:21 AM 39.0344 -76.9864 129° Southeast 307 353 18,800 1,017 Climbing Washington Center
Sun 09:15:18 AM 39.0108 -76.8658 104° East 328 377 19,000 203 Climbing Washington Center
Sun 09:16:19 AM 39.0414 -76.7300 74° East 338 389 19,200 732 Climbing Washington Center
Sun 09:17:21 AM 39.0719 -76.5861 75° East 379 436 20,500 1,328 Climbing Washington Center
Sun 09:18:21 AM 39.1064 -76.4369 73° East 407 468 21,900 1,576 Climbing Washington Center
Sun 09:19:19 AM 39.1364 -76.2875 75° East 419 482 23,600 1,513 Climbing Washington Center
Sun 09:20:20 AM 39.1644 -76.1350 77° East 426 490 24,900 1,150 Climbing Washington Center
Sun 09:21:19 AM 39.1817 -75.9772 82° East 438 504 25,900 992 Climbing Washington Center
Sun 09:22:21 AM 39.2278 -75.8300 68° East 438 504 26,900 1,033 Climbing Washington Center
Sun 09:23:21 AM 39.3197 -75.7122 45° Northeast 431 496 28,000 974 Climbing Washington Center
Sun 09:24:18 AM 39.4114 -75.5997 43° Northeast 443 510 28,800 940 Climbing Washington Center
Sun 09:26:07 AM 39.5728 -75.3900 45° Northeast 449 517 30,600 781 Climbing New York Center
Sun 09:27:07 AM 39.6628 -75.2717 45° Northeast 459 528 31,000 198 Climbing New York Center
Sun 09:28:08 AM 39.7578 -75.1292 49° Northeast 464 534 31,000  Level New York Center
Sun 09:29:06 AM 39.8436 -75.0075 47° Northeast 469 540 31,000  Level New York Center
Sun 09:30:06 AM 39.9314 -74.8856 47° Northeast 464 534 31,000  Level New York Center
Sun 09:31:06 AM 40.0081 -74.7736 48° Northeast 459 528 31,000  Level New York Center
Sun 09:32:07 AM 40.1022 -74.6378 48° Northeast 454 522 31,000  Level New York Center
Sun 09:33:06 AM 40.1789 -74.5281 48° Northeast 454 522 31,000  Level New York Center
Sun 09:34:06 AM 40.2708 -74.3836 50° Northeast 460 529 31,000 -248 Level New York Center
Sun 09:35:07 AM 40.3517 -74.2569 50° Northeast 460 529 30,500 -1,186 Descending New York Center
Sun 09:37:03 AM 40.5075 -74.0150 50° Northeast 458 527 27,500 -1,534 Descending Boston Center
Sun 09:38:03 AM 40.5864 -73.8858 51° Northeast 453 521 26,000 -1,500 Descending Boston Center
Sun 09:39:03 AM 40.6714 -73.7481 51° Northeast 447 514 24,500 -909 Descending Boston Center
Sun 09:40:15 AM 40.7628 -73.5964 51° Northeast 441 507 24,000 -227 Descending Boston Center
Sun 09:41:15 AM 40.8369 -73.4661 53° Northeast 441 507 24,000  Level Boston Center
Sun 09:42:15 AM 40.9192 -73.3439 48° Northeast 441 507 24,000  Level Boston Center
Sun 09:43:15 AM 40.9972 -73.2267 49° Northeast 429 494 24,000 -250 Level Boston Center
Sun 09:44:15 AM 41.0647 -73.0897 57° Northeast 429 494 23,500 -500 Descending Boston Center
Sun 09:45:15 AM 41.1300 -72.9528 58° Northeast 434 499 23,000 -250 Descending Boston Center
Sun 09:46:15 AM 41.1889 -72.8261 58° Northeast 426 490 23,000 -400 Level Boston Center
Sun 09:47:15 AM 41.2475 -72.6969 59° Northeast 412 474 22,200 -1,000 Descending Boston Center
Sun 09:48:15 AM 41.3019 -72.5589 62° Northeast 412 474 21,000 -700 Descending Boston Center
Sun 09:49:15 AM 41.3542 -72.4264 62° Northeast 412 474 20,800 -750 Descending Boston Center
Sun 09:50:15 AM 41.4000 -72.3156 61° Northeast 407 468 19,500 -893 Descending Boston Center
Sun 09:51:16 AM 41.4581 -72.1658 63° Northeast 408 470 19,000 -250 Descending Boston Center
Sun 09:52:15 AM 41.5158 -72.0186 62° Northeast 408 470 19,000  Level Boston Center
Sun 09:53:16 AM 41.5675 -71.8797 64° Northeast 408 470 19,000 -248 Level Boston Center
Sun 09:54:16 AM 41.6189 -71.7458 63° Northeast 408 470 18,500 -1,109 Descending Boston Center
Sun 09:55:15 AM 41.6700 -71.6092 63° Northeast 402 463 16,800 -1,563 Descending Boston Center
Sun 09:56:15 AM 41.7108 -71.4975 64° Northeast 410 472 15,400 -1,850 Descending Boston Center
Sun 09:57:15 AM 41.7719 -71.3433 62° Northeast 396 456 13,100 -2,050 Descending Boston Center
Sun 09:58:15 AM 41.8144 -71.2283 64° Northeast 383 441 11,300 -1,000 Descending Boston Center
Sun 09:59:15 AM 41.8672 -71.0992 61° Northeast 366 421 11,100 -100 Descending Boston Center
Sun 10:00:15 AM 41.9078 -71.0006 61° Northeast 346 398 11,100 -414 Level Boston Center
Sun 10:02:38 AM 42.0333 -70.7333 58° Northeast 312 359 9,700 -768 Descending KA90
Sun 10:03:38 AM 42.0833 -70.6500 51° Northeast 302 348 8,500 -1,100 Descending KA90
Sun 10:04:38 AM 42.1500 -70.6000 29° Northeast 280 322 7,500 -1,200 Descending KA90
Sun 10:05:38 AM 42.2167 -70.6000 360° North 268 308 6,100 -1,476 Descending KA90
Sun 10:06:44 AM 42.3000 -70.6333 344° North 256 295 4,400 -1,476 Descending KA90
Sun 10:07:44 AM 42.3667 -70.6667 340° North 256 295 3,000 -737 Descending KA90
Sun 10:08:38 AM 42.4000 -70.7333 304° West 250 288 3,000 -316 Level KA90
Sun 10:09:38 AM 42.3833 -70.8167 255° West 210 242 2,400 -750 Descending KA90
Sun 10:10:38 AM 42.3833 -70.8833 270° West 188 216 1,500 -842 Descending KA90
Sun 10:11:32 AM 42.3667 -70.9333 246° West 145 167 800 -684 Descending KA90
Sun 10:12:32 AM 42.3667 -70.9833 270° West 133 153 200 -600 Descending KA90

Login

Don't have an account? Register now (free) for customized features, flight alerts, and more!